Time;durP1;ratioP1;P1;durP2;ratioP2;P2;SDS_P1;SDS_P2;PMS_P1;PMS_P2;Temp;Humidity;BMP_temperature;BMP_pressure;BME280_temperature;BME280_humidity;BME280_pressure;Samples;Min_cycle;Max_cycle;Signal;HPM_P1;HPM_P2
2021/05/31 00:02:14;;;;;;;8.10;6.50;;;15.30;84.60;;;;;;5053409;28;20079;-82
2021/05/31 00:04:40;;;;;;;9.27;5.88;;;15.30;85.00;;;;;;5053512;28;20020;-82
2021/05/31 00:07:09;;;;;;;6.85;4.97;;;15.20;85.20;;;;;;5052401;28;20440;-82
2021/05/31 00:09:36;;;;;;;9.57;5.85;;;15.20;85.30;;;;;;5054918;28;20024;-82
2021/05/31 00:12:04;;;;;;;8.35;5.70;;;15.20;86.20;;;;;;5054469;28;20052;-82
2021/05/31 00:14:30;;;;;;;9.05;5.78;;;15.20;86.00;;;;;;5069418;28;20021;-82
2021/05/31 00:16:56;;;;;;;6.22;5.47;;;15.10;86.20;;;;;;5055077;28;20025;-82
2021/05/31 00:19:22;;;;;;;9.32;5.63;;;15.10;86.30;;;;;;5053308;28;20066;-82
2021/05/31 00:21:49;;;;;;;9.18;6.72;;;15.00;86.70;;;;;;5053365;28;20028;-82
2021/05/31 00:24:15;;;;;;;9.00;5.97;;;15.00;86.90;;;;;;5052154;28;20100;-82
2021/05/31 00:26:41;;;;;;;7.85;5.38;;;15.00;87.10;;;;;;5054302;28;20017;-82
2021/05/31 00:29:07;;;;;;;8.88;6.50;;;15.00;87.30;;;;;;5055630;28;20440;-82
2021/05/31 00:31:33;;;;;;;7.78;6.43;;;15.00;87.80;;;;;;5069136;28;20036;-82
2021/05/31 00:33:59;;;;;;;7.95;6.03;;;14.90;88.10;;;;;;5054268;28;20392;-82
2021/05/31 00:36:27;;;;;;;10.80;6.20;;;14.90;88.50;;;;;;5052506;28;20021;-82
2021/05/31 00:38:53;;;;;;;9.05;6.82;;;14.80;88.80;;;;;;5056522;28;20139;-82
2021/05/31 00:41:19;;;;;;;9.10;6.60;;;14.80;89.20;;;;;;5055419;28;20116;-82
2021/05/31 00:43:45;;;;;;;8.05;6.32;;;14.70;89.50;;;;;;5059227;28;20512;-82
2021/05/31 00:46:12;;;;;;;8.27;6.60;;;14.70;89.60;;;;;;5058325;28;20025;-82
2021/05/31 00:48:38;;;;;;;8.00;7.20;;;14.70;89.80;;;;;;5072462;28;20021;-82
2021/05/31 00:51:09;;;;;;;10.43;7.03;;;14.60;90.20;;;;;;5058024;28;20024;-82
2021/05/31 00:53:36;;;;;;;8.80;6.70;;;14.60;90.30;;;;;;5056591;28;20020;-82
2021/05/31 00:56:03;;;;;;;9.32;6.47;;;14.50;90.50;;;;;;5072054;28;20021;-82
2021/05/31 00:58:30;;;;;;;8.85;6.47;;;14.50;90.50;;;;;;5058656;28;20105;-82
2021/05/31 01:00:57;;;;;;;10.73;7.38;;;14.50;90.70;;;;;;5055867;28;20021;-82
2021/05/31 01:03:23;;;;;;;10.95;6.72;;;14.40;90.90;;;;;;5057607;28;20111;-82
2021/05/31 01:05:50;;;;;;;13.60;8.23;;;14.40;91.00;;;;;;5071598;28;20472;-82
2021/05/31 01:08:40;;;;;;;12.07;7.63;;;14.40;91.30;;;;;;5058345;28;20020;-82
2021/05/31 01:11:12;;;;;;;10.00;7.40;;;14.40;91.30;;;;;;5058147;28;20025;-81
2021/05/31 01:13:40;;;;;;;9.32;6.72;;;14.30;91.50;;;;;;5059542;28;20013;-82
2021/05/31 01:16:24;;;;;;;10.02;7.68;;;14.30;91.70;;;;;;5057261;28;20548;-82
2021/05/31 01:18:51;;;;;;;11.75;8.80;;;14.30;91.70;;;;;;5056593;28;20028;-82
2021/05/31 01:21:32;;;;;;;10.65;9.00;;;14.30;92.00;;;;;;5056060;28;20025;-82
2021/05/31 01:24:28;;;;;;;15.65;9.20;;;14.20;92.40;;;;;;5055311;28;20510;-82
2021/05/31 01:27:08;;;;;;;15.48;10.07;;;14.20;92.40;;;;;;5072933;28;20032;-82
2021/05/31 01:29:33;;;;;;;15.80;9.55;;;14.10;92.90;;;;;;5058935;28;20040;-82
2021/05/31 01:32:02;;;;;;;14.18;9.82;;;14.00;93.30;;;;;;5057459;28;20028;-82
2021/05/31 01:34:31;;;;;;;15.75;11.45;;;14.00;93.40;;;;;;5071945;28;20071;-82
2021/05/31 01:37:10;;;;;;;13.80;8.82;;;14.00;93.70;;;;;;5056668;28;20407;-82
2021/05/31 01:39:38;;;;;;;13.25;10.77;;;14.00;93.80;;;;;;5070802;28;20068;-82
2021/05/31 01:42:05;;;;;;;12.95;9.60;;;13.90;94.10;;;;;;5053880;28;20032;-81
2021/05/31 01:44:31;;;;;;;13.02;8.95;;;13.90;94.20;;;;;;5057387;28;20081;-82
2021/05/31 01:46:56;;;;;;;11.43;9.00;;;13.90;94.20;;;;;;5055609;28;20349;-82
2021/05/31 01:49:23;;;;;;;12.85;10.38;;;13.90;94.20;;;;;;5058163;28;20044;-82
2021/05/31 01:51:50;;;;;;;13.68;8.82;;;13.90;94.40;;;;;;5055045;28;20484;-82
2021/05/31 01:54:19;;;;;;;16.00;10.48;;;13.80;94.50;;;;;;5056438;28;20016;-82
2021/05/31 01:56:47;;;;;;;12.65;9.30;;;13.80;94.70;;;;;;5056514;28;20115;-82
2021/05/31 01:59:14;;;;;;;15.85;9.63;;;13.80;94.80;;;;;;5056415;28;20017;-82
2021/05/31 02:01:40;;;;;;;14.98;9.15;;;13.70;94.80;;;;;;5057186;28;20024;-82
2021/05/31 02:04:05;;;;;;;10.65;8.30;;;13.70;94.90;;;;;;5055502;28;20067;-82
2021/05/31 02:06:31;;;;;;;18.13;12.05;;;13.70;95.00;;;;;;5055407;28;20037;-82
2021/05/31 02:08:56;;;;;;;12.77;10.40;;;13.60;95.30;;;;;;5070034;28;20024;-81
2021/05/31 02:11:43;;;;;;;12.05;9.27;;;13.60;95.30;;;;;;5057494;28;20033;-81
2021/05/31 02:14:16;;;;;;;12.23;8.57;;;13.60;95.30;;;;;;5056446;28;20036;-82
2021/05/31 02:16:53;;;;;;;15.35;10.68;;;13.60;95.40;;;;;;5057761;28;20021;-82
2021/05/31 02:19:21;;;;;;;11.40;10.20;;;13.60;95.80;;;;;;5055495;28;20028;-81
2021/05/31 02:21:50;;;;;;;12.57;9.15;;;13.50;95.60;;;;;;5054469;28;20044;-82
2021/05/31 02:24:16;;;;;;;14.65;10.02;;;13.50;95.70;;;;;;5054550;28;20013;-81
2021/05/31 02:26:42;;;;;;;19.42;11.48;;;13.50;95.80;;;;;;5055046;28;20484;-81
2021/05/31 02:29:08;;;;;;;12.90;10.35;;;13.50;95.90;;;;;;5057952;28;20031;-82
2021/05/31 02:31:33;;;;;;;16.17;11.23;;;13.50;96.00;;;;;;5056208;28;20591;-81
2021/05/31 02:33:59;;;;;;;16.55;11.07;;;13.50;96.10;;;;;;5056823;28;20029;-81
2021/05/31 02:36:25;;;;;;;15.63;11.35;;;13.50;96.30;;;;;;5055039;28;20050;-82
2021/05/31 02:38:50;;;;;;;17.90;11.57;;;13.40;96.40;;;;;;5054157;28;20028;-81
2021/05/31 02:41:16;;;;;;;16.95;11.80;;;13.40;96.60;;;;;;5053995;28;20048;-82
2021/05/31 02:43:42;;;;;;;16.85;11.60;;;13.40;96.80;;;;;;5070226;28;20384;-81
2021/05/31 02:46:08;;;;;;;16.65;11.35;;;13.30;97.00;;;;;;5057528;28;20032;-81
2021/05/31 02:48:33;;;;;;;16.05;11.32;;;13.30;97.10;;;;;;5071114;28;20116;-82
2021/05/31 02:50:59;;;;;;;19.30;13.82;;;13.30;97.20;;;;;;5056950;28;20033;-82
2021/05/31 02:53:26;;;;;;;16.52;12.55;;;13.30;97.40;;;;;;5054877;28;20028;-82
2021/05/31 02:55:52;;;;;;;17.30;12.95;;;13.20;97.50;;;;;;5052971;28;20542;-82
2021/05/31 02:58:18;;;;;;;17.08;12.43;;;13.20;97.70;;;;;;5057259;28;20028;-82
2021/05/31 03:00:43;;;;;;;17.65;13.35;;;13.20;97.90;;;;;;5054428;28;20021;-82
2021/05/31 03:03:09;;;;;;;16.33;11.43;;;13.10;98.00;;;;;;5055597;28;20569;-82
2021/05/31 03:05:36;;;;;;;17.73;13.35;;;13.10;98.00;;;;;;5069454;28;20468;-82
2021/05/31 03:08:02;;;;;;;14.07;10.88;;;13.10;98.10;;;;;;5053851;28;20021;-82
2021/05/31 03:10:29;;;;;;;18.05;12.50;;;13.10;98.20;;;;;;5054722;28;20063;-82
2021/05/31 03:12:55;;;;;;;17.48;12.27;;;13.10;98.30;;;;;;5055461;28;20036;-81
2021/05/31 03:15:22;;;;;;;15.48;10.77;;;13.10;98.30;;;;;;5057075;28;20477;-82
2021/05/31 03:17:49;;;;;;;14.32;11.40;;;13.00;98.30;;;;;;5054872;28;20025;-82
2021/05/31 03:20:15;;;;;;;14.35;10.60;;;13.00;98.30;;;;;;5055496;28;20099;-82
2021/05/31 03:22:41;;;;;;;16.67;12.07;;;13.00;98.40;;;;;;5053873;28;20562;-82
2021/05/31 03:25:08;;;;;;;15.27;11.50;;;13.00;98.50;;;;;;5053642;28;20025;-82
2021/05/31 03:27:34;;;;;;;18.38;14.10;;;13.00;98.50;;;;;;5055378;28;20024;-82
2021/05/31 03:29:59;;;;;;;20.55;15.38;;;13.00;98.50;;;;;;5070770;28;20032;-81
2021/05/31 03:32:25;;;;;;;19.73;14.40;;;12.90;98.90;;;;;;5056514;28;20017;-82
2021/05/31 03:34:51;;;;;;;21.85;14.50;;;12.90;99.00;;;;;;5054514;28;20029;-82
2021/05/31 03:37:16;;;;;;;18.80;13.50;;;12.90;99.20;;;;;;5054806;28;20159;-81
2021/05/31 03:39:42;;;;;;;19.15;13.93;;;12.90;99.30;;;;;;5053431;28;20504;-81
2021/05/31 03:42:08;;;;;;;23.83;14.55;;;12.80;99.50;;;;;;5053294;28;20021;-81
2021/05/31 03:44:34;;;;;;;19.25;14.40;;;12.80;99.70;;;;;;5055407;28;20025;-82
2021/05/31 03:47:00;;;;;;;23.08;15.45;;;12.80;99.90;;;;;;5055004;28;20048;-82
2021/05/31 03:49:25;;;;;;;24.63;16.15;;;12.80;99.90;;;;;;5056443;28;20553;-82
2021/05/31 03:51:51;;;;;;;24.52;15.80;;;12.80;99.90;;;;;;5054273;28;20495;-82
2021/05/31 03:54:17;;;;;;;22.08;14.80;;;12.80;99.90;;;;;;5070099;28;20029;-81
2021/05/31 03:56:43;;;;;;;26.52;17.33;;;12.80;99.90;;;;;;5069961;28;20036;-82
2021/05/31 03:59:09;;;;;;;22.42;16.15;;;12.80;99.90;;;;;;5057073;28;20380;-82
2021/05/31 04:01:35;;;;;;;29.25;18.52;;;12.80;99.90;;;;;;5055253;28;20455;-82
2021/05/31 04:04:00;;;;;;;22.88;17.60;;;12.80;99.90;;;;;;5053623;28;20104;-82
2021/05/31 04:11:54;;;;;;;27.77;17.02;;;12.70;99.90;;;;;;5057503;28;20497;-82
2021/05/31 04:14:20;;;;;;;27.33;17.58;;;12.70;99.90;;;;;;5054291;28;20048;-82
2021/05/31 04:16:49;;;;;;;24.25;17.45;;;12.70;99.90;;;;;;5057650;28;20103;-82
2021/05/31 04:19:18;;;;;;;23.73;17.95;;;12.70;99.90;;;;;;5054473;28;20106;-81
2021/05/31 04:21:47;;;;;;;31.52;20.05;;;12.70;99.90;;;;;;5053871;28;20021;-81
2021/05/31 04:24:13;;;;;;;31.00;19.93;;;12.80;99.90;;;;;;5071115;28;20100;-81
2021/05/31 04:26:40;;;;;;;30.08;20.42;;;12.70;99.90;;;;;;5052234;28;20264;-81
2021/05/31 04:29:08;;;;;;;28.20;19.13;;;12.80;99.90;;;;;;5052810;28;20025;-81
2021/05/31 04:31:35;;;;;;;29.45;18.77;;;12.80;99.90;;;;;;5056315;28;20016;-84
2021/05/31 04:34:02;;;;;;;36.53;20.63;;;12.80;99.90;;;;;;5072858;28;20495;-81
2021/05/31 04:36:29;;;;;;;28.83;20.52;;;12.80;99.90;;;;;;5073061;28;20044;-85
2021/05/31 04:38:55;;;;;;;32.00;20.10;;;12.80;99.90;;;;;;5072840;28;20066;-84
2021/05/31 04:41:20;;;;;;;29.13;21.20;;;12.80;99.90;;;;;;5071772;28;20044;-87
2021/05/31 04:43:46;;;;;;;31.23;20.40;;;12.80;99.90;;;;;;5068586;28;20029;-80
2021/05/31 04:46:11;;;;;;;32.83;21.40;;;12.80;99.90;;;;;;5052145;28;20059;-81
2021/05/31 04:48:37;;;;;;;35.78;22.02;;;12.90;99.90;;;;;;5059168;28;20036;-82
2021/05/31 04:51:03;;;;;;;23.80;18.17;;;12.90;99.90;;;;;;5070757;28;20020;-82
2021/05/31 04:53:30;;;;;;;26.65;18.60;;;12.90;99.90;;;;;;5068356;28;20017;-82
2021/05/31 04:55:56;;;;;;;30.02;20.23;;;12.90;99.90;;;;;;5056376;28;20530;-81
2021/05/31 04:58:23;;;;;;;32.03;21.73;;;13.00;99.90;;;;;;5068199;28;20027;-81
2021/05/31 05:00:50;;;;;;;35.85;23.50;;;13.00;99.90;;;;;;5071826;28;20078;-81
2021/05/31 05:03:17;;;;;;;32.63;22.08;;;13.00;99.90;;;;;;5071907;28;20021;-80
2021/05/31 05:05:43;;;;;;;35.42;21.67;;;13.00;99.90;;;;;;5069713;28;20017;-81
2021/05/31 05:08:09;;;;;;;29.40;21.95;;;13.10;99.90;;;;;;5065906;28;20027;-82
2021/05/31 05:10:34;;;;;;;33.03;22.30;;;13.00;99.90;;;;;;5050302;28;20033;-81
2021/05/31 05:13:00;;;;;;;30.15;22.38;;;13.10;99.90;;;;;;5051514;28;20028;-82
2021/05/31 05:15:26;;;;;;;28.67;20.15;;;13.10;99.90;;;;;;5051397;28;20029;-82
2021/05/31 05:17:52;;;;;;;33.90;23.17;;;13.10;99.90;;;;;;5071451;28;20028;-81
2021/05/31 05:20:20;;;;;;;33.75;22.33;;;13.20;99.90;;;;;;5072658;28;20083;-81
2021/05/31 05:22:46;;;;;;;32.10;22.35;;;13.20;99.90;;;;;;5071923;28;20025;-81
2021/05/31 05:25:13;;;;;;;30.92;22.95;;;13.20;99.90;;;;;;5074937;28;20089;-81
2021/05/31 05:27:41;;;;;;;39.53;23.90;;;13.20;99.90;;;;;;5076075;28;20032;-81
2021/05/31 05:30:09;;;;;;;37.40;23.20;;;13.20;99.90;;;;;;5075942;28;20033;-82
2021/05/31 05:32:36;;;;;;;37.47;24.33;;;13.20;99.90;;;;;;5074842;28;20048;-81
2021/05/31 05:35:15;;;;;;;34.50;21.90;;;13.30;99.90;;;;;;5076046;28;20483;-81
2021/05/31 05:37:55;;;;;;;32.75;21.40;;;13.30;99.90;;;;;;5075740;28;20029;-81
2021/05/31 05:45:57;;;;;;;27.90;20.48;;;13.40;99.90;;;;;;5054190;28;20036;-81
2021/05/31 05:48:23;;;;;;;34.30;23.02;;;13.50;99.90;;;;;;5075733;28;20029;-81
2021/05/31 05:50:49;;;;;;;29.17;21.55;;;13.50;99.90;;;;;;5075791;28;20023;-81
2021/05/31 05:53:14;;;;;;;32.85;24.50;;;13.50;99.90;;;;;;5075694;28;20021;-82
2021/05/31 05:55:40;;;;;;;32.60;23.23;;;13.60;99.90;;;;;;5074234;28;20017;-81
2021/05/31 05:58:06;;;;;;;35.10;23.77;;;13.60;99.90;;;;;;5075444;28;20066;-81
2021/05/31 06:00:32;;;;;;;34.28;22.13;;;13.60;99.90;;;;;;5074183;28;20123;-81
2021/05/31 06:02:58;;;;;;;36.28;24.83;;;13.70;99.90;;;;;;5075538;28;20031;-81
2021/05/31 06:05:24;;;;;;;29.00;21.35;;;13.70;99.90;;;;;;5074119;28;20029;-81
2021/05/31 06:07:50;;;;;;;21.05;16.52;;;13.80;99.90;;;;;;5074082;28;20024;-81
2021/05/31 06:10:18;;;;;;;22.05;17.80;;;13.80;99.90;;;;;;5074074;28;20028;-81
2021/05/31 06:12:44;;;;;;;32.05;21.70;;;13.90;99.90;;;;;;5074716;28;20099;-81
2021/05/31 06:15:13;;;;;;;26.48;20.52;;;13.80;99.90;;;;;;5073432;28;20028;-81
2021/05/31 06:17:39;;;;;;;28.97;20.07;;;13.90;99.90;;;;;;5071007;28;20056;-81
2021/05/31 06:20:06;;;;;;;29.60;20.35;;;14.00;99.90;;;;;;5073445;28;20048;-81
2021/05/31 06:22:34;;;;;;;32.85;20.23;;;14.00;99.90;;;;;;5074759;28;20020;-81
2021/05/31 06:25:00;;;;;;;26.30;20.35;;;14.10;99.90;;;;;;5072284;28;20071;-82
2021/05/31 06:27:26;;;;;;;34.38;21.83;;;14.10;99.90;;;;;;5074388;28;20028;-82
2021/05/31 06:29:51;;;;;;;28.25;19.98;;;14.10;99.90;;;;;;5074466;28;20150;-82
2021/05/31 06:32:17;;;;;;;28.08;20.83;;;14.20;99.90;;;;;;5071685;28;20024;-81
2021/05/31 06:34:43;;;;;;;34.00;21.40;;;14.20;99.90;;;;;;5088974;28;20025;-82
2021/05/31 06:37:08;;;;;;;28.33;20.75;;;14.30;99.90;;;;;;5073094;28;20055;-82
2021/05/31 06:39:34;;;;;;;31.55;20.65;;;14.40;99.90;;;;;;5072733;28;20033;-82
2021/05/31 06:42:00;;;;;;;28.23;21.08;;;14.40;99.90;;;;;;5089847;28;20077;-81
2021/05/31 06:44:25;;;;;;;33.17;22.20;;;14.40;99.90;;;;;;5073104;28;20024;-81
2021/05/31 06:46:51;;;;;;;27.52;19.55;;;14.50;99.90;;;;;;5074079;28;20108;-81
2021/05/31 06:49:16;;;;;;;24.67;18.13;;;14.60;99.90;;;;;;5072713;28;20033;-81
2021/05/31 06:51:42;;;;;;;26.75;19.08;;;14.60;99.90;;;;;;5074190;28;20056;-82
2021/05/31 06:54:08;;;;;;;32.42;20.45;;;14.70;99.90;;;;;;5074052;28;20024;-81
2021/05/31 06:56:33;;;;;;;27.10;19.40;;;14.70;99.90;;;;;;5073810;28;20090;-82
2021/05/31 06:58:59;;;;;;;34.58;21.65;;;14.80;99.90;;;;;;5072727;28;20028;-81
2021/05/31 07:01:25;;;;;;;28.65;20.33;;;14.90;99.90;;;;;;5072649;28;20021;-82
2021/05/31 07:03:50;;;;;;;27.42;19.55;;;14.90;99.90;;;;;;5073471;28;20038;-82
2021/05/31 07:06:16;;;;;;;28.67;19.73;;;15.00;99.90;;;;;;5072042;28;20082;-82
2021/05/31 07:08:41;;;;;;;23.00;16.70;;;15.10;99.90;;;;;;5072762;28;20515;-82
2021/05/31 07:11:16;;;;;;;29.13;20.35;;;15.10;99.90;;;;;;5089463;28;20361;-82
2021/05/31 07:13:43;;;;;;;28.15;19.98;;;15.20;99.90;;;;;;5074106;28;20020;-81
2021/05/31 07:16:12;;;;;;;19.73;15.85;;;15.20;99.90;;;;;;5072264;28;20024;-82
2021/05/31 07:18:39;;;;;;;17.70;13.43;;;15.30;99.90;;;;;;5073870;28;20029;-81
2021/05/31 07:21:05;;;;;;;17.85;13.55;;;15.40;99.90;;;;;;5073916;28;20031;-81
2021/05/31 07:23:30;;;;;;;31.83;19.25;;;15.50;99.90;;;;;;5073792;28;20067;-81
2021/05/31 07:25:56;;;;;;;25.42;18.42;;;15.50;99.90;;;;;;5073635;28;20048;-81
2021/05/31 07:28:22;;;;;;;21.67;15.85;;;15.60;99.90;;;;;;5088739;28;20056;-81
2021/05/31 07:30:47;;;;;;;31.10;20.65;;;15.60;99.90;;;;;;5093914;28;20027;-81
2021/05/31 07:33:14;;;;;;;19.60;15.60;;;15.80;99.90;;;;;;5093849;28;20016;-81
2021/05/31 07:35:40;;;;;;;30.05;19.85;;;15.80;99.90;;;;;;5093890;28;20475;-81
2021/05/31 07:38:06;;;;;;;21.63;18.38;;;15.90;99.90;;;;;;5093673;28;20020;-81
2021/05/31 07:40:32;;;;;;;19.75;16.40;;;16.00;99.90;;;;;;5093531;28;20054;-81
2021/05/31 07:42:58;;;;;;;29.80;19.25;;;16.10;99.90;;;;;;5093755;28;20020;-81
2021/05/31 07:45:24;;;;;;;26.05;17.77;;;16.20;99.90;;;;;;5093344;28;20024;-81
2021/05/31 07:47:49;;;;;;;27.23;18.95;;;16.30;99.90;;;;;;5093455;28;20024;-81
2021/05/31 07:50:17;;;;;;;25.13;18.30;;;16.40;99.90;;;;;;5093570;28;20436;-81
2021/05/31 07:52:43;;;;;;;24.60;18.40;;;16.60;99.90;;;;;;5093643;28;20028;-81
2021/05/31 07:55:14;;;;;;;23.55;17.83;;;16.70;99.50;;;;;;5074242;28;20020;-81
2021/05/31 07:57:41;;;;;;;13.93;11.77;;;16.80;99.30;;;;;;5073309;28;20028;-81
2021/05/31 08:00:10;;;;;;;25.08;17.23;;;16.80;99.20;;;;;;5073117;28;20573;-81
2021/05/31 08:02:37;;;;;;;21.00;14.88;;;16.90;99.20;;;;;;5073151;28;20464;-81
2021/05/31 08:05:03;;;;;;;17.77;13.18;;;17.10;98.80;;;;;;5073259;28;20043;-81
2021/05/31 08:07:28;;;;;;;21.25;16.80;;;17.20;98.40;;;;;;5073094;28;20476;-81
2021/05/31 08:09:54;;;;;;;18.15;14.70;;;17.30;98.20;;;;;;5073158;28;20021;-81
2021/05/31 08:12:19;;;;;;;20.85;14.93;;;17.40;97.80;;;;;;5073192;28;20363;-81
2021/05/31 08:14:45;;;;;;;24.33;16.52;;;17.50;97.40;;;;;;5073131;28;20583;-81
2021/05/31 08:17:11;;;;;;;16.33;13.25;;;17.60;96.90;;;;;;5072907;28;20103;-81
2021/05/31 08:19:36;;;;;;;18.50;13.68;;;17.70;96.80;;;;;;5072784;28;20032;-81
2021/05/31 08:22:02;;;;;;;20.65;13.52;;;17.90;96.30;;;;;;5072824;28;20033;-81
2021/05/31 08:24:28;;;;;;;19.08;13.27;;;18.00;95.80;;;;;;5071735;28;20021;-81
2021/05/31 08:26:54;;;;;;;12.88;10.90;;;18.10;95.70;;;;;;5072843;28;20070;-81
2021/05/31 08:29:21;;;;;;;16.20;11.98;;;18.20;95.70;;;;;;5072867;28;20387;-81
2021/05/31 08:31:47;;;;;;;17.40;12.68;;;18.30;95.20;;;;;;5071614;28;20032;-81
2021/05/31 08:34:12;;;;;;;20.88;12.93;;;18.50;94.90;;;;;;5072834;28;20029;-81
2021/05/31 08:36:38;;;;;;;16.88;12.65;;;18.60;93.80;;;;;;5071505;28;20029;-82
2021/05/31 08:39:04;;;;;;;15.30;11.02;;;18.70;93.70;;;;;;5072790;28;20480;-81
2021/05/31 08:41:30;;;;;;;18.10;12.68;;;18.80;93.30;;;;;;5072862;28;20028;-81
2021/05/31 08:43:56;;;;;;;16.13;11.30;;;18.90;92.40;;;;;;5071173;28;20028;-82
2021/05/31 08:46:22;;;;;;;10.68;8.40;;;19.00;91.50;;;;;;5052782;28;20029;-82
2021/05/31 08:48:47;;;;;;;14.27;9.35;;;19.10;91.50;;;;;;5052680;28;20392;-82
2021/05/31 08:51:13;;;;;;;9.00;7.28;;;19.30;91.10;;;;;;5052625;28;20032;-82
2021/05/31 08:53:43;;;;;;;11.65;8.45;;;19.40;91.30;;;;;;5051729;28;20089;-82
2021/05/31 08:56:08;;;;;;;;;;;19.40;91.40;;;;;;5051454;28;20037;-82
2021/05/31 08:58:34;;;;;;;11.18;6.15;;;19.50;91.40;;;;;;5054629;28;19911;-81
2021/05/31 09:00:59;;;;;;;11.73;8.93;;;19.50;91.20;;;;;;5056544;28;20029;-82
2021/05/31 09:03:25;;;;;;;13.98;8.02;;;19.60;91.30;;;;;;5056511;28;20100;-82
2021/05/31 09:05:51;;;;;;;12.52;7.30;;;19.70;91.00;;;;;;5071699;28;20032;-82
2021/05/31 09:08:21;;;;;;;6.43;5.30;;;19.80;90.50;;;;;;5055175;28;20034;-82
2021/05/31 09:10:47;;;;;;;;;;;19.90;90.00;;;;;;5060159;28;20020;-82
2021/05/31 09:13:30;;;;;;;6.03;4.68;;;19.90;90.00;;;;;;5076279;28;20403;-82
2021/05/31 09:16:13;;;;;;;9.77;5.60;;;20.10;89.50;;;;;;5075590;28;20051;-82
2021/05/31 09:18:43;;;;;;;5.82;4.57;;;20.20;88.90;;;;;;5076204;28;20024;-82
2021/05/31 09:21:21;;;;;;;11.95;8.15;;;20.30;88.60;;;;;;5075934;28;20024;-82
2021/05/31 09:23:52;;;;;;;10.45;6.90;;;20.40;86.30;;;;;;5076035;28;20024;-82
2021/05/31 09:26:17;;;;;;;12.30;8.20;;;20.60;84.20;;;;;;5076181;28;20050;-82
2021/05/31 09:28:57;;;;;;;11.18;7.22;;;20.80;82.40;;;;;;5074657;28;20547;-82
2021/05/31 09:31:24;;;;;;;8.70;6.22;;;21.00;82.10;;;;;;5076087;28;20024;-82
2021/05/31 09:34:04;;;;;;;7.25;5.07;;;21.10;81.70;;;;;;5075931;28;20123;-82
2021/05/31 09:36:31;;;;;;;12.63;7.15;;;21.30;81.20;;;;;;5075655;28;20407;-82
2021/05/31 09:38:58;;;;;;;7.97;5.28;;;21.40;80.40;;;;;;5075938;28;20024;-82
2021/05/31 09:41:28;;;;;;;11.20;6.60;;;21.60;80.00;;;;;;5075736;28;20910;-82
2021/05/31 09:44:04;;;;;;;5.68;3.80;;;21.80;77.10;;;;;;5075853;28;20484;-82
2021/05/31 09:46:39;;;;;;;4.30;3.55;;;21.90;70.70;;;;;;5076099;28;20043;-82
2021/05/31 09:49:26;;;;;;;3.88;3.22;;;22.10;70.10;;;;;;5075899;28;20024;-82
2021/05/31 09:51:56;;;;;;;6.00;3.55;;;22.20;68.70;;;;;;5075530;28;20025;-82
2021/05/31 09:54:38;;;;;;;7.88;4.15;;;22.30;68.30;;;;;;5075500;28;20020;-82
2021/05/31 09:57:27;;;;;;;5.78;3.30;;;22.50;64.90;;;;;;5075298;28;20107;-82
2021/05/31 10:00:07;;;;;;;6.60;3.67;;;22.80;68.70;;;;;;5075395;28;20025;-82
2021/05/31 10:02:51;;;;;;;;;;;23.20;68.20;;;;;;5075736;28;20029;-82
2021/05/31 10:10:51;;;;;;;4.72;3.25;;;30.60;47.70;;;;;;5075505;28;20073;-83
2021/05/31 10:13:19;;;;;;;4.93;2.80;;;32.30;44.90;;;;;;5075242;28;20032;-80
2021/05/31 10:15:45;;;;;;;3.92;2.53;;;33.60;41.40;;;;;;5074960;28;20024;-84
2021/05/31 10:18:14;;;;;;;2.92;2.17;;;34.80;41.10;;;;;;5075070;28;20090;-80
2021/05/31 10:20:40;;;;;;;4.55;3.25;;;35.90;38.60;;;;;;5074774;28;20035;-81
2021/05/31 10:23:08;;;;;;;6.10;3.17;;;36.60;35.30;;;;;;5074358;28;20113;-78
2021/05/31 10:25:38;;;;;;;3.83;2.33;;;37.20;35.70;;;;;;5074504;28;20445;-79
2021/05/31 10:28:20;;;;;;;4.13;2.78;;;37.30;34.30;;;;;;5074820;28;20078;-79
2021/05/31 10:31:00;;;;;;;3.92;2.78;;;37.30;35.00;;;;;;5074539;28;20017;-80
2021/05/31 10:33:27;;;;;;;3.83;2.50;;;38.40;35.20;;;;;;5073270;28;20017;-81
2021/05/31 10:35:54;;;;;;;3.22;2.28;;;39.50;34.10;;;;;;5074013;28;20027;-85
2021/05/31 10:38:22;;;;;;;4.25;3.08;;;39.80;32.00;;;;;;5073044;28;20070;-84
2021/05/31 10:40:50;;;;;;;7.43;3.13;;;40.30;31.50;;;;;;5074039;28;20048;-84
2021/05/31 10:43:19;;;;;;;;;;;40.80;31.10;;;;;;5087675;28;20032;-83
2021/05/31 10:45:44;;;;;;;2.20;1.80;;;41.00;31.60;;;;;;5072906;28;19904;-83
2021/05/31 10:48:18;;;;;;;3.78;2.80;;;41.40;32.30;;;;;;5072768;28;20036;-84
2021/05/31 10:50:45;;;;;;;4.68;3.17;;;42.00;29.90;;;;;;5074043;28;20056;-84
2021/05/31 10:53:41;;;;;;;2.88;2.50;;;42.20;29.80;;;;;;5073999;28;20127;-84
2021/05/31 10:56:17;;;;;;;3.17;2.60;;;42.30;30.10;;;;;;5072141;28;20060;-84
2021/05/31 10:58:47;;;;;;;2.75;2.35;;;42.50;29.80;;;;;;5072232;28;20021;-83
2021/05/31 11:01:22;;;;;;;5.57;2.70;;;42.20;30.10;;;;;;5073853;28;20035;-84
2021/05/31 11:03:53;;;;;;;3.90;2.45;;;42.60;29.10;;;;;;5073781;28;20035;-83
2021/05/31 11:06:24;;;;;;;2.85;2.47;;;43.30;29.10;;;;;;5071403;28;20099;-85
2021/05/31 11:08:54;;;;;;;3.22;2.40;;;43.40;28.50;;;;;;5073623;28;20028;-85
2021/05/31 11:11:29;;;;;;;3.53;2.20;;;43.70;29.00;;;;;;5071561;28;20021;-85
2021/05/31 11:13:55;;;;;;;3.97;2.30;;;43.70;29.20;;;;;;5073402;28;20024;-83
2021/05/31 11:16:21;;;;;;;2.42;2.22;;;43.70;29.10;;;;;;5073423;28;20495;-85
2021/05/31 11:18:49;;;;;;;3.60;2.60;;;44.10;29.30;;;;;;5073727;28;20033;-87
2021/05/31 11:21:50;;;;;;;3.60;2.80;;;43.60;28.40;;;;;;5088971;28;20035;-85
2021/05/31 11:24:18;;;;;;;2.92;2.45;;;44.00;27.90;;;;;;5032002;28;20079;-86
2021/05/31 11:26:47;;;;;;;3.15;2.60;;;44.40;27.60;;;;;;5081960;28;20033;-89
2021/05/31 11:29:12;;;;;;;2.75;2.47;;;44.70;27.50;;;;;;5073881;28;20024;-89
2021/05/31 11:31:40;;;;;;;2.60;2.15;;;45.10;27.50;;;;;;5072871;28;20379;-82
2021/05/31 11:34:07;;;;;;;2.17;1.90;;;45.40;27.30;;;;;;5073400;28;20039;-85
2021/05/31 11:36:43;;;;;;;3.67;2.28;;;45.50;27.30;;;;;;5073057;28;20025;-86
2021/05/31 11:39:14;;;;;;;3.50;2.67;;;45.20;27.20;;;;;;5072925;28;20024;-85
2021/05/31 11:41:49;;;;;;;3.30;2.40;;;45.30;27.30;;;;;;5073745;28;20026;-90
2021/05/31 11:44:31;;;;;;;3.05;2.50;;;45.70;26.80;;;;;;5071425;28;20024;-89
2021/05/31 11:46:59;;;;;;;3.40;2.40;;;46.00;27.10;;;;;;5088116;28;20070;-85
2021/05/31 11:49:26;;;;;;;3.22;2.30;;;46.70;27.10;;;;;;5073461;28;20055;-85
2021/05/31 11:52:07;;;;;;;3.75;2.72;;;46.90;26.00;;;;;;5073163;28;20023;-85
2021/05/31 11:54:38;;;;;;;2.85;2.65;;;46.90;25.80;;;;;;5072853;28;20054;-85
2021/05/31 11:57:09;;;;;;;2.72;2.53;;;46.40;25.70;;;;;;5072623;28;20469;-85
2021/05/31 11:59:46;;;;;;;2.63;1.98;;;46.10;25.80;;;;;;5069244;28;20035;-86
2021/05/31 12:02:13;;;;;;;3.33;3.03;;;46.00;26.10;;;;;;5069746;28;20024;-84
2021/05/31 12:04:42;;;;;;;2.75;2.55;;;45.70;25.80;;;;;;5073138;28;20741;-86
2021/05/31 12:07:11;;;;;;;2.67;2.38;;;45.30;25.90;;;;;;5073032;28;20491;-86
2021/05/31 12:09:42;;;;;;;2.30;2.05;;;45.00;26.00;;;;;;5072975;28;20056;-85
2021/05/31 12:12:09;;;;;;;3.33;2.17;;;44.10;25.70;;;;;;5071105;28;20032;-85
2021/05/31 12:14:54;;;;;;;3.15;2.75;;;43.70;26.10;;;;;;5072835;28;20043;-85
2021/05/31 12:17:22;;;;;;;3.55;2.30;;;43.80;26.60;;;;;;5072840;28;20036;-84
2021/05/31 12:19:50;;;;;;;2.95;2.45;;;43.80;26.60;;;;;;5072825;28;20123;-84
2021/05/31 12:22:17;;;;;;;3.20;2.40;;;43.90;26.70;;;;;;5073004;28;20017;-85
2021/05/31 12:24:45;;;;;;;2.60;2.23;;;43.90;26.30;;;;;;5071551;28;20052;-85
2021/05/31 12:27:12;;;;;;;2.13;1.92;;;43.60;26.00;;;;;;5071190;28;20033;-85
2021/05/31 12:29:42;;;;;;;4.28;2.47;;;43.30;26.10;;;;;;5071441;28;20108;-82
2021/05/31 12:32:09;;;;;;;3.55;2.50;;;43.10;26.60;;;;;;5071469;28;20453;-83
2021/05/31 12:34:36;;;;;;;2.78;2.38;;;42.70;27.10;;;;;;5076275;28;20027;-81
2021/05/31 12:37:04;;;;;;;3.15;2.75;;;42.10;27.30;;;;;;5076195;28;20035;-82
2021/05/31 12:39:30;;;;;;;2.50;2.30;;;42.20;27.00;;;;;;5074018;28;20123;-82
2021/05/31 12:41:59;;;;;;;2.75;2.55;;;42.30;26.90;;;;;;5076803;28;20103;-81
2021/05/31 12:44:28;;;;;;;4.68;3.92;;;42.50;27.00;;;;;;5067558;28;20468;-82
2021/05/31 12:47:13;;;;;;;3.42;3.05;;;42.40;27.30;;;;;;5056233;28;20031;-82
2021/05/31 12:49:51;;;;;;;3.47;3.10;;;42.50;27.50;;;;;;5056140;28;20039;-83
2021/05/31 12:52:25;;;;;;;4.65;3.80;;;41.90;27.70;;;;;;5055481;28;20025;-82
2021/05/31 12:55:09;;;;;;;4.05;3.15;;;41.90;27.90;;;;;;5059982;28;20111;-85
2021/05/31 12:57:48;;;;;;;4.40;3.72;;;42.20;28.20;;;;;;5074103;28;20028;-84
2021/05/31 13:00:16;;;;;;;4.70;3.60;;;42.10;27.80;;;;;;5076183;28;20016;-85